This is the latest recevied weather packets stored in our database for station/object IT9RID. If no packets are shown the sender has not sent any weather packets the latest 10 day(s).
| Time | Temp. | Humidity | Pressure | Rain* | Wind** | Luminosity | Snow |
|---|---|---|---|---|---|---|---|
| 1787756214 | 35° C | 44% | 1013.9 hPa | 0 mm | - | - | - |
| 1787755614 | 35° C | 45% | 1013.9 hPa | 0 mm | - | - | - |
| 1787755014 | 35° C | 44% | 1014 hPa | 0 mm | - | - | - |
| 1787753213 | 35.56° C | 41% | 1014 hPa | 0 mm | - | - | - |
| 1787752613 | 35.56° C | 41% | 1014.1 hPa | 0 mm | - | - | - |
| 1787752013 | 35.56° C | 41% | 1014.2 hPa | 0 mm | - | - | - |
| 1787751413 | 35.56° C | 44% | 1014.1 hPa | 0 mm | - | - | - |
| 1787750813 | 35.56° C | 42% | 1014.3 hPa | 0 mm | - | - | - |
| 1787750213 | 36.11° C | 42% | 1014.3 hPa | 0 mm | - | - | - |
| 1787749613 | 36.11° C | 42% | 1014.4 hPa | 0 mm | - | - | - |
| 1787749013 | 36.11° C | 39% | 1014.5 hPa | 0 mm | - | - | - |
| 1787748412 | 36.11° C | 41% | 1014.5 hPa | 0 mm | - | - | - |
| 1787747812 | 35.56° C | 42% | 1014.6 hPa | 0 mm | - | - | - |
| 1787747212 | 35° C | 43% | 1014.7 hPa | 0 mm | - | - | - |
| 1787746612 | 35° C | 42% | 1014.8 hPa | 0 mm | - | - | - |
| 1787746012 | 35.56° C | 42% | 1014.8 hPa | 0 mm | - | - | - |
| 1787745411 | 35.56° C | 42% | 1014.8 hPa | 0 mm | - | - | - |
| 1787744811 | 35.56° C | 43% | 1014.9 hPa | 0 mm | - | - | - |
| 1787744211 | 35° C | 44% | 1015 hPa | 0 mm | - | - | - |
| 1787743611 | 35° C | 46% | 1015.1 hPa | 0 mm | - | - | - |
| 1787743011 | 34.44° C | 50% | 1015.2 hPa | 0 mm | - | - | - |
| 1787742411 | 33.89° C | 50% | 1015.2 hPa | 0 mm | - | - | - |
| 1787741811 | 35° C | 48% | 1015.3 hPa | 0 mm | - | - | - |
| 1787741210 | 33.89° C | 52% | 1015.4 hPa | 0 mm | - | - | - |
| 1787740610 | 33.33° C | 56% | 1015.4 hPa | 0 mm | - | - | - |
* Rain latest hour (hover to see other rain measurements)
** Current wind speed in m/s (hover to see current wind gust speed)